createdAt,value
2022-11-16T00:03:11.579Z,55.37
2022-11-16T00:08:14.868Z,57.40
2022-11-16T00:13:18.069Z,55.77
2022-11-16T00:18:21.250Z,55.47
2022-11-16T00:23:24.505Z,51.90
2022-11-16T00:28:28.527Z,54.37
2022-11-16T00:33:32.209Z,53.27
2022-11-16T00:38:35.697Z,52.17
2022-11-16T00:43:39.233Z,56.43
2022-11-16T00:48:42.949Z,58.20
2022-11-16T00:53:46.003Z,54.37
2022-11-16T00:58:49.427Z,47.13
2022-11-16T01:03:53.259Z,49.57
2022-11-16T01:08:56.253Z,49.63
2022-11-16T01:14:02.685Z,41.67
2022-11-16T01:19:05.813Z,9.57
2022-11-16T01:24:08.735Z,3.63
2022-11-16T01:29:11.849Z,2.40
2022-11-16T01:34:19.377Z,1.40
2022-11-16T01:39:24.031Z,2.43
2022-11-16T01:44:33.823Z,3.03
2022-11-16T01:49:55.092Z,2.40
2022-11-16T01:55:04.472Z,2.30
2022-11-16T02:00:19.909Z,3.57
2022-11-16T02:05:50.830Z,1.53
2022-11-16T02:11:02.728Z,2.57
2022-11-16T02:16:13.347Z,1.57
2022-11-16T02:21:33.810Z,2.57
2022-11-16T02:27:02.789Z,2.17
2022-11-16T02:32:10.433Z,1.17
2022-11-16T02:37:18.020Z,1.83
2022-11-16T02:42:35.364Z,2.40
2022-11-16T02:47:42.034Z,2.03
2022-11-16T02:52:45.472Z,1.30
2022-11-16T02:57:54.144Z,2.23
2022-11-16T03:03:10.408Z,3.73
2022-11-16T03:08:27.505Z,2.30
2022-11-16T03:13:34.158Z,2.17
2022-11-16T03:18:38.839Z,3.03
2022-11-16T03:23:42.714Z,1.73
2022-11-16T03:28:57.038Z,1.13
2022-11-16T03:34:04.865Z,1.10
2022-11-16T03:39:13.509Z,1.43
2022-11-16T03:44:17.778Z,1.43
2022-11-16T03:49:23.124Z,3.07
2022-11-16T03:54:28.339Z,3.33
2022-11-16T03:59:31.412Z,2.33
2022-11-16T04:04:54.789Z,2.10
2022-11-16T04:10:17.916Z,2.40
2022-11-16T04:15:39.833Z,2.30
2022-11-16T04:21:02.387Z,1.67
2022-11-16T04:26:08.129Z,1.53
2022-11-16T04:31:30.669Z,1.40
2022-11-16T04:36:58.133Z,2.40
2022-11-16T04:42:19.978Z,1.53
2022-11-16T04:47:26.183Z,4.10
2022-11-16T04:52:28.971Z,3.70
2022-11-16T04:57:32.501Z,2.37
2022-11-16T05:02:36.026Z,2.60
2022-11-16T05:07:41.636Z,2.30
2022-11-16T05:12:51.186Z,3.47
2022-11-16T05:17:55.883Z,3.10
2022-11-16T05:23:01.320Z,6.77
2022-11-16T05:28:09.621Z,4.00
2022-11-16T05:33:18.787Z,3.67
2022-11-16T05:38:22.145Z,4.57
2022-11-16T05:43:29.829Z,3.83
2022-11-16T05:48:42.137Z,3.47
2022-11-16T05:53:45.047Z,2.97
2022-11-16T05:58:52.420Z,4.47
2022-11-16T06:03:56.176Z,2.37
2022-11-16T06:09:00.054Z,2.33
2022-11-16T06:14:03.874Z,2.03
2022-11-16T06:19:07.746Z,1.30
2022-11-16T06:24:10.783Z,2.17
2022-11-16T06:29:15.134Z,3.37
2022-11-16T06:34:18.588Z,5.63
2022-11-16T06:39:21.847Z,9.57
2022-11-16T06:44:25.497Z,3.77
2022-11-16T06:49:34.031Z,2.27
2022-11-16T06:54:41.998Z,73.90
2022-11-16T06:59:45.207Z,11.63
2022-11-16T07:04:49.135Z,7.97
2022-11-16T07:09:52.452Z,12.23
2022-11-16T07:14:56.309Z,6.20
2022-11-16T07:20:00.671Z,4.90
2022-11-16T07:25:05.658Z,4.43
2022-11-16T07:30:09.251Z,3.27
2022-11-16T07:35:33.130Z,2.47
2022-11-16T07:40:37.696Z,3.30
2022-11-16T07:45:41.163Z,4.70
2022-11-16T07:50:46.695Z,4.60
2022-11-16T07:55:54.868Z,5.27
2022-11-16T08:01:12.976Z,4.33
2022-11-16T08:06:18.562Z,3.60
2022-11-16T08:11:22.102Z,6.03
2022-11-16T08:16:29.657Z,7.17
2022-11-16T08:21:42.082Z,5.97
2022-11-16T08:26:45.145Z,9.17
2022-11-16T08:31:50.717Z,9.00
2022-11-16T08:36:56.269Z,9.27
2022-11-16T08:42:11.565Z,7.97
2022-11-16T08:47:16.073Z,14.80
2022-11-16T08:52:24.450Z,8.70
2022-11-16T08:57:30.214Z,12.17
2022-11-16T09:02:35.998Z,27.20
2022-11-16T09:07:40.643Z,59.10
2022-11-16T09:12:43.800Z,20.17
2022-11-16T09:17:46.686Z,4.13
2022-11-16T09:22:49.578Z,4.03
2022-11-16T09:27:55.524Z,26.13
2022-11-16T09:32:59.395Z,9.27
2022-11-16T09:38:02.536Z,9.47
2022-11-16T09:43:33.769Z,12.13
2022-11-16T09:48:37.930Z,11.43
2022-11-16T09:53:56.171Z,7.00
2022-11-16T09:59:11.078Z,9.40
2022-11-16T10:04:37.272Z,8.07
2022-11-16T10:09:40.225Z,35.20
2022-11-16T10:15:14.139Z,26.67
2022-11-16T10:20:35.955Z,28.77
2022-11-16T10:25:46.950Z,12.33
2022-11-16T10:31:30.334Z,21.20
2022-11-16T10:36:36.438Z,13.53
2022-11-16T10:41:50.639Z,15.67
2022-11-16T10:47:02.497Z,25.77
2022-11-16T10:52:05.945Z,107.70
2022-11-16T10:57:14.204Z,64.37
2022-11-16T11:02:27.965Z,16.43
2022-11-16T11:07:33.454Z,19.30
2022-11-16T11:12:39.171Z,27.20
2022-11-16T11:17:44.387Z,38.33
2022-11-16T11:22:50.550Z,38.70
2022-11-16T11:28:08.243Z,40.27
2022-11-16T11:33:15.822Z,36.93
2022-11-16T11:38:19.459Z,42.97
2022-11-16T11:43:24.897Z,47.20
2022-11-16T11:48:38.556Z,49.40
2022-11-16T11:53:48.297Z,32.50
2022-11-16T11:58:54.576Z,43.60
2022-11-16T12:04:35.728Z,11.37
2022-11-16T12:10:03.648Z,69.10
2022-11-16T12:15:28.894Z,26.73
2022-11-16T12:20:38.465Z,73.13
2022-11-16T12:26:25.237Z,39.97
2022-11-16T12:31:59.419Z,15.87
2022-11-16T12:37:23.975Z,28.10
2022-11-16T12:42:45.397Z,39.53
2022-11-16T12:48:08.329Z,15.90
2022-11-16T12:53:29.480Z,65.37
2022-11-16T12:59:01.750Z,26.00
2022-11-16T13:04:27.729Z,51.40
2022-11-16T13:09:34.653Z,64.47
2022-11-16T13:14:52.073Z,37.10
2022-11-16T13:20:19.342Z,32.13
2022-11-16T13:25:33.411Z,29.83
2022-11-16T13:30:58.204Z,79.63
2022-11-16T13:36:45.453Z,81.57
2022-11-16T13:41:51.086Z,9.00
2022-11-16T13:47:05.301Z,41.67
2022-11-16T13:52:23.231Z,27.67
2022-11-16T13:57:30.189Z,12.67
2022-11-16T14:02:41.116Z,6.63
2022-11-16T14:07:48.334Z,11.63
2022-11-16T14:12:53.341Z,9.00
2022-11-16T14:18:00.973Z,10.37
2022-11-16T14:23:23.598Z,9.07
2022-11-16T14:28:45.509Z,6.53
2022-11-16T14:33:58.693Z,15.43
2022-11-16T14:39:30.853Z,8.60
2022-11-16T14:44:39.405Z,4.87
2022-11-16T14:49:43.635Z,8.40
2022-11-16T14:54:46.511Z,9.77
2022-11-16T14:59:50.325Z,4.57
2022-11-16T15:04:54.283Z,8.33
2022-11-16T15:10:02.639Z,4.30
2022-11-16T15:15:16.124Z,22.70
2022-11-16T15:20:24.243Z,11.53
2022-11-16T15:25:33.713Z,20.47
2022-11-16T15:30:44.155Z,16.50
2022-11-16T15:35:47.709Z,20.67
2022-11-16T15:40:55.261Z,27.37
2022-11-16T15:45:58.888Z,34.60
2022-11-16T15:51:05.280Z,20.40
2022-11-16T15:56:30.928Z,19.60
2022-11-16T16:01:41.908Z,31.73
2022-11-16T16:06:49.509Z,22.53
2022-11-16T16:11:55.576Z,17.50
2022-11-16T16:16:59.819Z,6.50
2022-11-16T16:22:04.250Z,25.40
2022-11-16T16:27:12.539Z,75.20
2022-11-16T16:32:24.873Z,40.67
2022-11-16T16:37:29.762Z,12.60
2022-11-16T16:42:32.786Z,12.13
2022-11-16T16:47:35.967Z,7.67
2022-11-16T16:52:39.974Z,4.43
2022-11-16T16:57:42.779Z,3.87
2022-11-16T17:02:45.755Z,8.73
2022-11-16T17:07:48.562Z,4.70
2022-11-16T17:12:56.364Z,6.43
2022-11-16T17:18:00.060Z,6.30
2022-11-16T17:23:03.317Z,9.57
2022-11-16T17:28:06.442Z,4.30
2022-11-16T17:33:09.286Z,6.80
2022-11-16T17:38:13.318Z,4.63
2022-11-16T17:43:16.135Z,2.97
2022-11-16T17:48:19.117Z,8.40
2022-11-16T17:53:28.408Z,7.17
2022-11-16T17:58:34.303Z,9.73
2022-11-16T18:03:37.798Z,14.57
2022-11-16T18:08:41.481Z,15.90
2022-11-16T18:13:45.388Z,13.43
2022-11-16T18:18:49.146Z,25.17
2022-11-16T18:23:52.196Z,15.00
2022-11-16T18:28:55.322Z,5.43
2022-11-16T18:33:58.574Z,5.67
2022-11-16T18:39:01.624Z,6.33
2022-11-16T18:44:06.406Z,3.77
2022-11-16T18:49:12.354Z,10.83
2022-11-16T18:54:17.847Z,4.30
2022-11-16T18:59:21.641Z,8.10
2022-11-16T19:04:25.119Z,4.47
2022-11-16T19:09:28.869Z,6.60
2022-11-16T19:14:32.418Z,8.90
2022-11-16T19:19:36.458Z,5.60
2022-11-16T19:24:39.999Z,5.27
2022-11-16T19:29:43.795Z,4.47
2022-11-16T19:34:46.775Z,5.17
2022-11-16T19:39:50.159Z,4.93
2022-11-16T19:44:53.300Z,4.40
2022-11-16T19:49:57.552Z,5.23
2022-11-16T19:55:01.279Z,3.13
2022-11-16T20:00:04.863Z,3.33
2022-11-16T20:05:09.262Z,5.03
2022-11-16T20:10:12.533Z,3.50
2022-11-16T20:15:15.965Z,3.20
2022-11-16T20:20:19.175Z,3.03
2022-11-16T20:25:23.683Z,4.03
2022-11-16T20:30:27.816Z,10.43
2022-11-16T20:35:31.457Z,2.93
2022-11-16T20:40:34.788Z,6.73
2022-11-16T20:45:38.113Z,4.93
2022-11-16T20:50:41.688Z,4.57
2022-11-16T20:55:46.151Z,3.50
2022-11-16T21:00:49.750Z,5.50
2022-11-16T21:05:53.171Z,15.60
2022-11-16T21:10:56.360Z,5.43
2022-11-16T21:16:05.243Z,3.43
2022-11-16T21:21:12.478Z,5.10
2022-11-16T21:26:16.008Z,3.67
2022-11-16T21:31:21.564Z,14.47
2022-11-16T21:36:26.478Z,11.67
2022-11-16T21:41:29.427Z,8.57
2022-11-16T21:46:32.194Z,8.70
2022-11-16T21:51:35.225Z,5.77
2022-11-16T21:56:38.077Z,3.47
2022-11-16T22:01:59.543Z,4.83
2022-11-16T22:07:31.548Z,2.50
2022-11-16T22:12:35.051Z,5.47
2022-11-16T22:17:44.927Z,3.63
2022-11-16T22:22:47.963Z,7.93
2022-11-16T22:28:20.353Z,1.87
2022-11-16T22:33:14.058Z,2.27
2022-11-16T22:38:17.074Z,7.70
2022-11-16T22:43:21.274Z,5.50
2022-11-16T22:48:24.441Z,2.67
2022-11-16T22:53:27.525Z,1.70
2022-11-16T22:58:30.344Z,2.07
2022-11-16T23:03:34.382Z,2.13
2022-11-16T23:08:38.076Z,6.93
2022-11-16T23:13:59.705Z,3.00
2022-11-16T23:19:02.720Z,2.87
2022-11-16T23:24:24.798Z,4.00
2022-11-16T23:29:28.140Z,2.60
2022-11-16T23:34:31.201Z,1.87
2022-11-16T23:39:34.383Z,2.33
2022-11-16T23:44:37.551Z,2.43
2022-11-16T23:49:40.571Z,4.23
2022-11-16T23:54:43.868Z,2.20
2022-11-16T23:59:46.822Z,3.70
